sensor_id;sensor_type;location;lat;lon;timestamp;pressure;altitude;pressure_sealevel;temperature;humidity
30343;BME280;17145;49.902;8.680;'2022-12-18 00:58:19';101450;;;-6;48
30343;BME280;17145;49.902;8.680;'2022-12-18 01:00:46';101450;;;-7;48
30343;BME280;17145;49.902;8.680;'2022-12-18 01:03:14';101440;;;-7;48
30343;BME280;17145;49.902;8.680;'2022-12-18 01:05:48';101440;;;-7;48
30343;BME280;17145;49.902;8.680;'2022-12-18 01:08:16';101440;;;-7;48
30343;BME280;17145;49.902;8.680;'2022-12-18 01:10:44';101430;;;-7;48
30343;BME280;17145;49.902;8.680;'2022-12-18 01:13:12';101430;;;-7;48
30343;BME280;17145;49.902;8.680;'2022-12-18 01:15:40';101430;;;-7;48
30343;BME280;17145;49.902;8.680;'2022-12-18 01:18:07';101430;;;-7;48
30343;BME280;17145;49.902;8.680;'2022-12-18 01:20:36';101440;;;-7;48
30343;BME280;17145;49.902;8.680;'2022-12-18 01:23:05';101440;;;-7;48
30343;BME280;17145;49.902;8.680;'2022-12-18 01:25:33';101440;;;-7;48
30343;BME280;17145;49.902;8.680;'2022-12-18 01:28:01';101450;;;-7;48
30343;BME280;17145;49.902;8.680;'2022-12-18 01:30:29';101450;;;-7;48
30343;BME280;17145;49.902;8.680;'2022-12-18 01:32:57';101450;;;-7;48
30343;BME280;17145;49.902;8.680;'2022-12-18 01:35:25';101450;;;-7;48
30343;BME280;17145;49.902;8.680;'2022-12-18 01:37:52';101460;;;-7;48
30343;BME280;17145;49.902;8.680;'2022-12-18 01:40:19';101450;;;-7;47
30343;BME280;17145;49.902;8.680;'2022-12-18 01:42:47';101440;;;-7;48
30343;BME280;17145;49.902;8.680;'2022-12-18 01:45:14';101440;;;-7;48
30343;BME280;17145;49.902;8.680;'2022-12-18 01:47:42';101430;;;-7;47
30343;BME280;17145;49.902;8.680;'2022-12-18 01:50:10';101430;;;-7;47
30343;BME280;17145;49.902;8.680;'2022-12-18 01:52:40';101430;;;-7;47
30343;BME280;17145;49.902;8.680;'2022-12-18 01:55:08';101440;;;-7;48
30343;BME280;17145;49.902;8.680;'2022-12-18 01:57:36';101440;;;-7;48
30343;BME280;17145;49.902;8.680;'2022-12-18 02:00:04';101440;;;-7;48
30343;BME280;17145;49.902;8.680;'2022-12-18 02:02:31';101450;;;-7;48
30343;BME280;17145;49.902;8.680;'2022-12-18 02:04:59';101450;;;-7;48
30343;BME280;17145;49.902;8.680;'2022-12-18 02:07:26';101450;;;-7;47
30343;BME280;17145;49.902;8.680;'2022-12-18 02:09:54';101450;;;-7;47
30343;BME280;17145;49.902;8.680;'2022-12-18 02:12:21';101450;;;-7;47
30343;BME280;17145;49.902;8.680;'2022-12-18 02:14:49';101450;;;-7;47
30343;BME280;17145;49.902;8.680;'2022-12-18 02:17:16';101450;;;-7;47
30343;BME280;17145;49.902;8.680;'2022-12-18 02:19:44';101450;;;-7;47
30343;BME280;17145;49.902;8.680;'2022-12-18 02:22:11';101450;;;-7;48
30343;BME280;17145;49.902;8.680;'2022-12-18 02:24:38';101450;;;-7;48
30343;BME280;17145;49.902;8.680;'2022-12-18 02:27:06';101460;;;-6;48
30343;BME280;17145;49.902;8.680;'2022-12-18 02:29:33';101460;;;-7;47
30343;BME280;17145;49.902;8.680;'2022-12-18 02:32:00';101450;;;-7;47
30343;BME280;17145;49.902;8.680;'2022-12-18 02:34:28';101450;;;-7;47
30343;BME280;17145;49.902;8.680;'2022-12-18 02:36:56';101460;;;-7;47
30343;BME280;17145;49.902;8.680;'2022-12-18 02:39:23';101480;;;-7;47
30343;BME280;17145;49.902;8.680;'2022-12-18 02:44:28';101480;;;-7;47
30343;BME280;17145;49.902;8.680;'2022-12-18 02:46:56';101480;;;-7;47
30343;BME280;17145;49.902;8.680;'2022-12-18 02:49:23';101480;;;-7;47
30343;BME280;17145;49.902;8.680;'2022-12-18 02:51:51';101470;;;-7;47
30343;BME280;17145;49.902;8.680;'2022-12-18 02:54:19';101470;;;-7;47
30343;BME280;17145;49.902;8.680;'2022-12-18 02:56:46';101470;;;-7;47
30343;BME280;17145;49.902;8.680;'2022-12-18 02:59:14';101470;;;-7;47
30343;BME280;17145;49.902;8.680;'2022-12-18 03:01:41';101470;;;-7;47
30343;BME280;17145;49.902;8.680;'2022-12-18 03:04:21';101470;;;-7;47
30343;BME280;17145;49.902;8.680;'2022-12-18 03:06:54';101470;;;-7;47
30343;BME280;17145;49.902;8.680;'2022-12-18 03:09:31';101470;;;-7;47
30343;BME280;17145;49.902;8.680;'2022-12-18 03:12:09';101460;;;-7;47
30343;BME280;17145;49.902;8.680;'2022-12-18 03:14:40';101460;;;-7;47
30343;BME280;17145;49.902;8.680;'2022-12-18 03:17:15';101460;;;-7;47
30343;BME280;17145;49.902;8.680;'2022-12-18 03:19:55';101460;;;-7;47
30343;BME280;17145;49.902;8.680;'2022-12-18 03:22:33';101460;;;-7;47
30343;BME280;17145;49.902;8.680;'2022-12-18 03:25:13';101450;;;-7;47
30343;BME280;17145;49.902;8.680;'2022-12-18 03:27:45';101450;;;-7;47
30343;BME280;17145;49.902;8.680;'2022-12-18 03:30:14';101440;;;-7;47
30343;BME280;17145;49.902;8.680;'2022-12-18 03:32:45';101440;;;-7;47
30343;BME280;17145;49.902;8.680;'2022-12-18 03:35:17';101440;;;-7;47
30343;BME280;17145;49.902;8.680;'2022-12-18 03:37:47';101440;;;-7;47
30343;BME280;17145;49.902;8.680;'2022-12-18 03:40:17';101440;;;-7;47
30343;BME280;17145;49.902;8.680;'2022-12-18 03:42:44';101440;;;-7;47
30343;BME280;17145;49.902;8.680;'2022-12-18 03:45:11';101440;;;-7;47
30343;BME280;17145;49.902;8.680;'2022-12-18 03:47:43';101440;;;-7;47
30343;BME280;17145;49.902;8.680;'2022-12-18 03:50:19';101430;;;-7;47
30343;BME280;17145;49.902;8.680;'2022-12-18 03:52:58';101440;;;-7;47
30343;BME280;17145;49.902;8.680;'2022-12-18 03:55:35';101430;;;-7;47
30343;BME280;17145;49.902;8.680;'2022-12-18 03:58:11';101430;;;-7;47
30343;BME280;17145;49.902;8.680;'2022-12-18 04:00:46';101440;;;-7;47
30343;BME280;17145;49.902;8.680;'2022-12-18 04:03:21';101430;;;-7;47
30343;BME280;17145;49.902;8.680;'2022-12-18 04:05:53';101440;;;-7;47
30343;BME280;17145;49.902;8.680;'2022-12-18 04:08:24';101450;;;-7;47
30343;BME280;17145;49.902;8.680;'2022-12-18 04:10:57';101460;;;-7;46
30343;BME280;17145;49.902;8.680;'2022-12-18 04:13:33';101470;;;-7;46
30343;BME280;17145;49.902;8.680;'2022-12-18 04:16:02';101470;;;-8;47
30343;BME280;17145;49.902;8.680;'2022-12-18 04:18:36';101460;;;-7;46
30343;BME280;17145;49.902;8.680;'2022-12-18 04:21:07';101460;;;-7;46
30343;BME280;17145;49.902;8.680;'2022-12-18 04:23:40';101460;;;-7;46
30343;BME280;17145;49.902;8.680;'2022-12-18 04:26:13';101460;;;-7;46
30343;BME280;17145;49.902;8.680;'2022-12-18 04:28:45';101470;;;-7;46
30343;BME280;17145;49.902;8.680;'2022-12-18 04:31:15';101460;;;-7;46
30343;BME280;17145;49.902;8.680;'2022-12-18 04:33:50';101460;;;-7;46
30343;BME280;17145;49.902;8.680;'2022-12-18 04:36:18';101450;;;-8;46
30343;BME280;17145;49.902;8.680;'2022-12-18 04:38:45';101450;;;-8;46
30343;BME280;17145;49.902;8.680;'2022-12-18 04:41:19';101450;;;-8;46
30343;BME280;17145;49.902;8.680;'2022-12-18 04:43:52';101450;;;-8;46
30343;BME280;17145;49.902;8.680;'2022-12-18 04:46:28';101440;;;-8;46
30343;BME280;17145;49.902;8.680;'2022-12-18 04:49:01';101430;;;-8;46
30343;BME280;17145;49.902;8.680;'2022-12-18 04:51:39';101430;;;-8;46
30343;BME280;17145;49.902;8.680;'2022-12-18 04:54:09';101420;;;-8;46
30343;BME280;17145;49.902;8.680;'2022-12-18 04:56:42';101420;;;-8;46
30343;BME280;17145;49.902;8.680;'2022-12-18 04:59:12';101420;;;-8;46
30343;BME280;17145;49.902;8.680;'2022-12-18 05:01:45';101430;;;-8;46
30343;BME280;17145;49.902;8.680;'2022-12-18 05:04:14';101430;;;-8;46
30343;BME280;17145;49.902;8.680;'2022-12-18 05:06:45';101430;;;-8;46
30343;BME280;17145;49.902;8.680;'2022-12-18 05:09:13';101430;;;-8;46
30343;BME280;17145;49.902;8.680;'2022-12-18 05:11:41';101430;;;-8;46
30343;BME280;17145;49.902;8.680;'2022-12-18 05:14:08';101440;;;-8;46
30343;BME280;17145;49.902;8.680;'2022-12-18 05:16:36';101430;;;-8;46
30343;BME280;17145;49.902;8.680;'2022-12-18 05:19:03';101440;;;-8;46
30343;BME280;17145;49.902;8.680;'2022-12-18 05:21:31';101440;;;-8;46
30343;BME280;17145;49.902;8.680;'2022-12-18 05:23:58';101440;;;-8;46
30343;BME280;17145;49.902;8.680;'2022-12-18 05:26:25';101440;;;-8;46
30343;BME280;17145;49.902;8.680;'2022-12-18 05:28:52';101440;;;-8;46
30343;BME280;17145;49.902;8.680;'2022-12-18 05:31:20';101430;;;-8;46
30343;BME280;17145;49.902;8.680;'2022-12-18 05:33:47';101430;;;-8;46
30343;BME280;17145;49.902;8.680;'2022-12-18 05:36:15';101420;;;-8;46
30343;BME280;17145;49.902;8.680;'2022-12-18 05:38:42';101420;;;-8;46
30343;BME280;17145;49.902;8.680;'2022-12-18 05:41:13';101420;;;-8;46
30343;BME280;17145;49.902;8.680;'2022-12-18 05:43:40';101420;;;-8;46
30343;BME280;17145;49.902;8.680;'2022-12-18 05:46:08';101420;;;-8;46
30343;BME280;17145;49.902;8.680;'2022-12-18 05:48:37';101420;;;-8;46
30343;BME280;17145;49.902;8.680;'2022-12-18 05:51:05';101420;;;-8;46
30343;BME280;17145;49.902;8.680;'2022-12-18 05:53:32';101420;;;-8;46
30343;BME280;17145;49.902;8.680;'2022-12-18 05:56:06';101420;;;-8;46
30343;BME280;17145;49.902;8.680;'2022-12-18 05:58:34';101420;;;-8;46
30343;BME280;17145;49.902;8.680;'2022-12-18 06:01:01';101430;;;-8;46
30343;BME280;17145;49.902;8.680;'2022-12-18 06:03:29';101430;;;-8;46
30343;BME280;17145;49.902;8.680;'2022-12-18 06:05:56';101440;;;-8;46
30343;BME280;17145;49.902;8.680;'2022-12-18 06:08:24';101440;;;-8;46
30343;BME280;17145;49.902;8.680;'2022-12-18 06:11:00';101440;;;-8;46
30343;BME280;17145;49.902;8.680;'2022-12-18 06:13:27';101440;;;-8;46
30343;BME280;17145;49.902;8.680;'2022-12-18 06:15:55';101440;;;-8;46
30343;BME280;17145;49.902;8.680;'2022-12-18 06:18:23';101430;;;-8;46
30343;BME280;17145;49.902;8.680;'2022-12-18 06:20:51';101430;;;-8;46
30343;BME280;17145;49.902;8.680;'2022-12-18 06:23:20';101440;;;-8;46
30343;BME280;17145;49.902;8.680;'2022-12-18 06:25:51';101440;;;-8;46
30343;BME280;17145;49.902;8.680;'2022-12-18 06:28:18';101450;;;-8;46
30343;BME280;17145;49.902;8.680;'2022-12-18 06:30:48';101460;;;-8;46
30343;BME280;17145;49.902;8.680;'2022-12-18 06:33:16';101460;;;-8;46
30343;BME280;17145;49.902;8.680;'2022-12-18 06:35:43';101460;;;-8;46
30343;BME280;17145;49.902;8.680;'2022-12-18 06:38:11';101460;;;-8;46
30343;BME280;17145;49.902;8.680;'2022-12-18 06:40:41';101450;;;-8;46
30343;BME280;17145;49.902;8.680;'2022-12-18 06:43:09';101440;;;-8;46
30343;BME280;17145;49.902;8.680;'2022-12-18 06:45:37';101430;;;-8;46
30343;BME280;17145;49.902;8.680;'2022-12-18 06:48:06';101430;;;-8;46
30343;BME280;17145;49.902;8.680;'2022-12-18 06:50:34';101430;;;-8;47
30343;BME280;17145;49.902;8.680;'2022-12-18 06:53:02';101430;;;-8;47
30343;BME280;17145;49.902;8.680;'2022-12-18 06:55:32';101430;;;-8;47
30343;BME280;17145;49.902;8.680;'2022-12-18 06:57:59';101430;;;-8;47
30343;BME280;17145;49.902;8.680;'2022-12-18 07:00:27';101420;;;-8;47
30343;BME280;17145;49.902;8.680;'2022-12-18 07:02:54';101420;;;-8;47
30343;BME280;17145;49.902;8.680;'2022-12-18 07:05:22';101420;;;-8;47
30343;BME280;17145;49.902;8.680;'2022-12-18 07:07:49';101420;;;-8;47
30343;BME280;17145;49.902;8.680;'2022-12-18 07:10:16';101420;;;-8;47
30343;BME280;17145;49.902;8.680;'2022-12-18 07:12:44';101430;;;-8;47
30343;BME280;17145;49.902;8.680;'2022-12-18 07:15:12';101440;;;-8;47
30343;BME280;17145;49.902;8.680;'2022-12-18 07:17:39';101440;;;-8;47
30343;BME280;17145;49.902;8.680;'2022-12-18 07:20:07';101440;;;-8;47
30343;BME280;17145;49.902;8.680;'2022-12-18 07:22:35';101440;;;-8;46
30343;BME280;17145;49.902;8.680;'2022-12-18 07:25:03';101440;;;-8;46
30343;BME280;17145;49.902;8.680;'2022-12-18 07:27:31';101450;;;-8;46
30343;BME280;17145;49.902;8.680;'2022-12-18 07:29:59';101460;;;-8;47
30343;BME280;17145;49.902;8.680;'2022-12-18 07:32:27';101470;;;-8;47
30343;BME280;17145;49.902;8.680;'2022-12-18 07:34:54';101470;;;-8;47
30343;BME280;17145;49.902;8.680;'2022-12-18 07:37:21';101480;;;-8;47
30343;BME280;17145;49.902;8.680;'2022-12-18 07:39:49';101480;;;-8;46
30343;BME280;17145;49.902;8.680;'2022-12-18 07:42:16';101480;;;-8;46
30343;BME280;17145;49.902;8.680;'2022-12-18 07:44:43';101480;;;-8;46
30343;BME280;17145;49.902;8.680;'2022-12-18 07:47:11';101480;;;-8;46
30343;BME280;17145;49.902;8.680;'2022-12-18 07:49:38';101480;;;-8;46
30343;BME280;17145;49.902;8.680;'2022-12-18 07:52:05';101480;;;-8;47
30343;BME280;17145;49.902;8.680;'2022-12-18 07:54:33';101480;;;-8;47
30343;BME280;17145;49.902;8.680;'2022-12-18 07:57:00';101480;;;-8;47
30343;BME280;17145;49.902;8.680;'2022-12-18 07:59:28';101490;;;-8;47
30343;BME280;17145;49.902;8.680;'2022-12-18 08:01:55';101480;;;-8;47
30343;BME280;17145;49.902;8.680;'2022-12-18 08:04:27';101480;;;-8;47
30343;BME280;17145;49.902;8.680;'2022-12-18 08:06:55';101480;;;-8;46
30343;BME280;17145;49.902;8.680;'2022-12-18 08:09:22';101480;;;-8;46
30343;BME280;17145;49.902;8.680;'2022-12-18 08:11:49';101480;;;-8;46
30343;BME280;17145;49.902;8.680;'2022-12-18 08:14:17';101490;;;-8;47
30343;BME280;17145;49.902;8.680;'2022-12-18 08:16:44';101490;;;-8;47
30343;BME280;17145;49.902;8.680;'2022-12-18 08:19:11';101500;;;-8;47
30343;BME280;17145;49.902;8.680;'2022-12-18 08:21:39';101500;;;-8;47
30343;BME280;17145;49.902;8.680;'2022-12-18 08:24:07';101500;;;-7;47
30343;BME280;17145;49.902;8.680;'2022-12-18 08:26:34';101500;;;-7;47
30343;BME280;17145;49.902;8.680;'2022-12-18 08:29:02';101500;;;-7;47
30343;BME280;17145;49.902;8.680;'2022-12-18 08:31:29';101500;;;-7;47
30343;BME280;17145;49.902;8.680;'2022-12-18 08:33:56';101500;;;-8;47
30343;BME280;17145;49.902;8.680;'2022-12-18 08:36:24';101500;;;-8;47
30343;BME280;17145;49.902;8.680;'2022-12-18 08:38:51';101500;;;-7;47
30343;BME280;17145;49.902;8.680;'2022-12-18 08:41:20';101490;;;-7;47
30343;BME280;17145;49.902;8.680;'2022-12-18 08:43:47';101490;;;-7;47
30343;BME280;17145;49.902;8.680;'2022-12-18 08:46:17';101490;;;-7;47
30343;BME280;17145;49.902;8.680;'2022-12-18 08:48:45';101490;;;-7;47
30343;BME280;17145;49.902;8.680;'2022-12-18 08:51:12';101500;;;-7;47
30343;BME280;17145;49.902;8.680;'2022-12-18 08:53:41';101500;;;-7;47
30343;BME280;17145;49.902;8.680;'2022-12-18 08:56:11';101490;;;-7;48
30343;BME280;17145;49.902;8.680;'2022-12-18 08:58:38';101490;;;-7;48
30343;BME280;17145;49.902;8.680;'2022-12-18 09:01:07';101500;;;-7;48
30343;BME280;17145;49.902;8.680;'2022-12-18 09:03:35';101510;;;-7;48
30343;BME280;17145;49.902;8.680;'2022-12-18 09:06:04';101510;;;-7;48
30343;BME280;17145;49.902;8.680;'2022-12-18 09:08:32';101510;;;-7;48
30343;BME280;17145;49.902;8.680;'2022-12-18 09:11:00';101520;;;-7;48
30343;BME280;17145;49.902;8.680;'2022-12-18 09:13:27';101520;;;-7;48
30343;BME280;17145;49.902;8.680;'2022-12-18 09:15:56';101520;;;-7;48
30343;BME280;17145;49.902;8.680;'2022-12-18 09:18:24';101520;;;-7;48
30343;BME280;17145;49.902;8.680;'2022-12-18 09:20:52';101510;;;-7;48
30343;BME280;17145;49.902;8.680;'2022-12-18 09:23:19';101520;;;-7;48
30343;BME280;17145;49.902;8.680;'2022-12-18 09:25:47';101520;;;-7;48
30343;BME280;17145;49.902;8.680;'2022-12-18 09:28:18';101520;;;-7;48
30343;BME280;17145;49.902;8.680;'2022-12-18 09:30:45';101520;;;-7;49
30343;BME280;17145;49.902;8.680;'2022-12-18 09:33:12';101510;;;-7;49
30343;BME280;17145;49.902;8.680;'2022-12-18 09:35:40';101510;;;-7;49
30343;BME280;17145;49.902;8.680;'2022-12-18 09:38:07';101510;;;-6;49
30343;BME280;17145;49.902;8.680;'2022-12-18 09:40:34';101520;;;-6;49
30343;BME280;17145;49.902;8.680;'2022-12-18 09:43:02';101510;;;-6;49
30343;BME280;17145;49.902;8.680;'2022-12-18 09:45:29';101510;;;-6;49
30343;BME280;17145;49.902;8.680;'2022-12-18 09:47:57';101500;;;-6;50
30343;BME280;17145;49.902;8.680;'2022-12-18 09:50:24';101490;;;-6;50
30343;BME280;17145;49.902;8.680;'2022-12-18 09:52:51';101480;;;-6;50
30343;BME280;17145;49.902;8.680;'2022-12-18 09:55:19';101470;;;-6;50
30343;BME280;17145;49.902;8.680;'2022-12-18 09:57:48';101470;;;-6;50
30343;BME280;17145;49.902;8.680;'2022-12-18 10:00:16';101480;;;-6;50
30343;BME280;17145;49.902;8.680;'2022-12-18 10:02:43';101480;;;-5;50
30343;BME280;17145;49.902;8.680;'2022-12-18 10:05:11';101480;;;-5;50
30343;BME280;17145;49.902;8.680;'2022-12-18 10:07:38';101480;;;-5;50
30343;BME280;17145;49.902;8.680;'2022-12-18 10:10:06';101470;;;-5;50
30343;BME280;17145;49.902;8.680;'2022-12-18 10:12:34';101460;;;-5;50
30343;BME280;17145;49.902;8.680;'2022-12-18 10:15:01';101470;;;-5;50
30343;BME280;17145;49.902;8.680;'2022-12-18 10:17:28';101480;;;-4;49
30343;BME280;17145;49.902;8.680;'2022-12-18 10:19:56';101490;;;-5;49
30343;BME280;17145;49.902;8.680;'2022-12-18 10:22:23';101500;;;-5;49
30343;BME280;17145;49.902;8.680;'2022-12-18 10:24:51';101510;;;-4;49
30343;BME280;17145;49.902;8.680;'2022-12-18 10:27:18';101510;;;-4;49
30343;BME280;17145;49.902;8.680;'2022-12-18 10:29:45';101500;;;-4;49
30343;BME280;17145;49.902;8.680;'2022-12-18 10:32:13';101510;;;-4;49
30343;BME280;17145;49.902;8.680;'2022-12-18 10:34:40';101510;;;-4;49
30343;BME280;17145;49.902;8.680;'2022-12-18 10:37:07';101500;;;-4;49
30343;BME280;17145;49.902;8.680;'2022-12-18 10:39:35';101500;;;-4;49
30343;BME280;17145;49.902;8.680;'2022-12-18 10:42:03';101500;;;-4;48
30343;BME280;17145;49.902;8.680;'2022-12-18 10:44:34';101500;;;-4;48
30343;BME280;17145;49.902;8.680;'2022-12-18 10:47:09';101490;;;-3;48
30343;BME280;17145;49.902;8.680;'2022-12-18 10:49:42';101490;;;-4;48
30343;BME280;17145;49.902;8.680;'2022-12-18 10:52:15';101500;;;-4;48
30343;BME280;17145;49.902;8.680;'2022-12-18 10:54:49';101500;;;-4;48
30343;BME280;17145;49.902;8.680;'2022-12-18 10:57:21';101500;;;-4;48
30343;BME280;17145;49.902;8.680;'2022-12-18 10:59:54';101500;;;-3;48
30343;BME280;17145;49.902;8.680;'2022-12-18 11:02:25';101500;;;-3;48
30343;BME280;17145;49.902;8.680;'2022-12-18 11:05:02';101510;;;-3;47
30343;BME280;17145;49.902;8.680;'2022-12-18 11:07:42';101500;;;-3;47
30343;BME280;17145;49.902;8.680;'2022-12-18 11:10:22';101500;;;-3;47
30343;BME280;17145;49.902;8.680;'2022-12-18 11:13:00';101500;;;-3;47
30343;BME280;17145;49.902;8.680;'2022-12-18 11:15:35';101500;;;-3;47
30343;BME280;17145;49.902;8.680;'2022-12-18 11:18:17';101510;;;-3;47
30343;BME280;17145;49.902;8.680;'2022-12-18 11:20:49';101520;;;-3;47
30343;BME280;17145;49.902;8.680;'2022-12-18 11:23:21';101500;;;-3;47
30343;BME280;17145;49.902;8.680;'2022-12-18 11:25:55';101500;;;-3;46
30343;BME280;17145;49.902;8.680;'2022-12-18 11:28:24';101490;;;-3;46
30343;BME280;17145;49.902;8.680;'2022-12-18 11:30:52';101490;;;-3;46
30343;BME280;17145;49.902;8.680;'2022-12-18 11:33:22';101490;;;-3;46
30343;BME280;17145;49.902;8.680;'2022-12-18 11:35:54';101470;;;-3;46
30343;BME280;17145;49.902;8.680;'2022-12-18 11:38:25';101480;;;-3;46
30343;BME280;17145;49.902;8.680;'2022-12-18 11:40:56';101490;;;-3;46
30343;BME280;17145;49.902;8.680;'2022-12-18 11:43:26';101490;;;-3;45
30343;BME280;17145;49.902;8.680;'2022-12-18 11:46:05';101490;;;-3;45
30343;BME280;17145;49.902;8.680;'2022-12-18 11:48:36';101480;;;-3;45
30343;BME280;17145;49.902;8.680;'2022-12-18 11:51:05';101490;;;-3;46
30343;BME280;17145;49.902;8.680;'2022-12-18 11:53:35';101490;;;-3;45
30343;BME280;17145;49.902;8.680;'2022-12-18 11:56:06';101480;;;-3;45
30343;BME280;17145;49.902;8.680;'2022-12-18 11:58:35';101480;;;-3;45
30343;BME280;17145;49.902;8.680;'2022-12-18 12:01:06';101480;;;-3;45
30343;BME280;17145;49.902;8.680;'2022-12-18 12:03:36';101480;;;-3;45
30343;BME280;17145;49.902;8.680;'2022-12-18 12:06:07';101480;;;-3;45
30343;BME280;17145;49.902;8.680;'2022-12-18 12:08:35';101480;;;-2;45
30343;BME280;17145;49.902;8.680;'2022-12-18 12:11:04';101490;;;-2;45
30343;BME280;17145;49.902;8.680;'2022-12-18 12:13:32';101480;;;-2;45
30343;BME280;17145;49.902;8.680;'2022-12-18 12:15:59';101470;;;-2;45
30343;BME280;17145;49.902;8.680;'2022-12-18 12:18:29';101470;;;-2;45
30343;BME280;17145;49.902;8.680;'2022-12-18 12:21:01';101470;;;-2;45
30343;BME280;17145;49.902;8.680;'2022-12-18 12:23:28';101470;;;-2;44
30343;BME280;17145;49.902;8.680;'2022-12-18 12:25:59';101470;;;-2;44
30343;BME280;17145;49.902;8.680;'2022-12-18 12:28:34';101460;;;-2;44
30343;BME280;17145;49.902;8.680;'2022-12-18 12:31:16';101470;;;-2;44
30343;BME280;17145;49.902;8.680;'2022-12-18 12:33:50';101460;;;-1;44
30343;BME280;17145;49.902;8.680;'2022-12-18 12:36:18';101460;;;-1;43
30343;BME280;17145;49.902;8.680;'2022-12-18 12:38:48';101460;;;-2;43
30343;BME280;17145;49.902;8.680;'2022-12-18 12:41:23';101470;;;-2;43
30343;BME280;17145;49.902;8.680;'2022-12-18 12:43:55';101460;;;-1;44
30343;BME280;17145;49.902;8.680;'2022-12-18 12:46:30';101450;;;-2;44
30343;BME280;17145;49.902;8.680;'2022-12-18 12:49:03';101450;;;-2;44
30343;BME280;17145;49.902;8.680;'2022-12-18 12:51:38';101450;;;-1;44
30343;BME280;17145;49.902;8.680;'2022-12-18 12:54:13';101450;;;-1;44
30343;BME280;17145;49.902;8.680;'2022-12-18 12:56:46';101450;;;-2;44
30343;BME280;17145;49.902;8.680;'2022-12-18 12:59:24';101450;;;-1;44
30343;BME280;17145;49.902;8.680;'2022-12-18 13:04:39';101450;;;-1;44
30343;BME280;17145;49.902;8.680;'2022-12-18 13:07:19';101460;;;-1;44
30343;BME280;17145;49.902;8.680;'2022-12-18 13:09:57';101450;;;-1;44
30343;BME280;17145;49.902;8.680;'2022-12-18 13:12:36';101450;;;-1;44
30343;BME280;17145;49.902;8.680;'2022-12-18 13:15:12';101450;;;-1;44
30343;BME280;17145;49.902;8.680;'2022-12-18 13:17:50';101450;;;-1;44
30343;BME280;17145;49.902;8.680;'2022-12-18 13:20:25';101450;;;-1;44
30343;BME280;17145;49.902;8.680;'2022-12-18 13:23:01';101450;;;-1;43
30343;BME280;17145;49.902;8.680;'2022-12-18 13:25:36';101450;;;-1;44
30343;BME280;17145;49.902;8.680;'2022-12-18 13:28:18';101440;;;-1;44
30343;BME280;17145;49.902;8.680;'2022-12-18 13:30:57';101440;;;-2;44
30343;BME280;17145;49.902;8.680;'2022-12-18 13:33:36';101440;;;-2;44
30343;BME280;17145;49.902;8.680;'2022-12-18 13:36:12';101430;;;-2;44
30343;BME280;17145;49.902;8.680;'2022-12-18 13:38:42';101420;;;-1;44
30343;BME280;17145;49.902;8.680;'2022-12-18 13:41:14';101420;;;-1;44
30343;BME280;17145;49.902;8.680;'2022-12-18 13:43:46';101430;;;-1;44
30343;BME280;17145;49.902;8.680;'2022-12-18 13:46:17';101430;;;-1;44
30343;BME280;17145;49.902;8.680;'2022-12-18 13:48:49';101420;;;-1;44
30343;BME280;17145;49.902;8.680;'2022-12-18 13:51:20';101430;;;-1;44
30343;BME280;17145;49.902;8.680;'2022-12-18 13:53:48';101430;;;-1;44
30343;BME280;17145;49.902;8.680;'2022-12-18 13:56:18';101420;;;-1;44
30343;BME280;17145;49.902;8.680;'2022-12-18 13:58:55';101420;;;-1;44
30343;BME280;17145;49.902;8.680;'2022-12-18 14:01:32';101420;;;-1;44
30343;BME280;17145;49.902;8.680;'2022-12-18 14:04:10';101420;;;-1;44
30343;BME280;17145;49.902;8.680;'2022-12-18 14:06:45';101420;;;-1;44
30343;BME280;17145;49.902;8.680;'2022-12-18 14:09:12';101420;;;-1;44
30343;BME280;17145;49.902;8.680;'2022-12-18 14:14:19';101420;;;-1;44
30343;BME280;17145;49.902;8.680;'2022-12-18 14:16:46';101410;;;-1;44
30343;BME280;17145;49.902;8.680;'2022-12-18 14:19:22';101410;;;-1;44
30343;BME280;17145;49.902;8.680;'2022-12-18 14:21:55';101400;;;-1;44
30343;BME280;17145;49.902;8.680;'2022-12-18 14:24:26';101400;;;-1;45
30343;BME280;17145;49.902;8.680;'2022-12-18 14:26:54';101380;;;-1;45
30343;BME280;17145;49.902;8.680;'2022-12-18 14:29:42';101370;;;-1;45
30343;BME280;17145;49.902;8.680;'2022-12-18 14:32:20';101370;;;-1;45
30343;BME280;17145;49.902;8.680;'2022-12-18 14:40:23';101370;;;-1;45
30343;BME280;17145;49.902;8.680;'2022-12-18 14:45:37';101370;;;-1;45
30343;BME280;17145;49.902;8.680;'2022-12-18 14:48:14';101360;;;-2;45
30343;BME280;17145;49.902;8.680;'2022-12-18 14:50:42';101360;;;-2;45
30343;BME280;17145;49.902;8.680;'2022-12-18 14:53:19';101360;;;-2;45
30343;BME280;17145;49.902;8.680;'2022-12-18 14:55:48';101360;;;-2;46
30343;BME280;17145;49.902;8.680;'2022-12-18 14:58:16';101360;;;-2;46
30343;BME280;17145;49.902;8.680;'2022-12-18 15:00:44';101360;;;-2;46
30343;BME280;17145;49.902;8.680;'2022-12-18 15:03:20';101350;;;-2;46
30343;BME280;17145;49.902;8.680;'2022-12-18 15:05:55';101350;;;-2;46
30343;BME280;17145;49.902;8.680;'2022-12-18 15:08:30';101340;;;-2;46
30343;BME280;17145;49.902;8.680;'2022-12-18 15:10:58';101340;;;-2;46
30343;BME280;17145;49.902;8.680;'2022-12-18 15:13:30';101340;;;-2;46
30343;BME280;17145;49.902;8.680;'2022-12-18 15:16:01';101340;;;-2;46
30343;BME280;17145;49.902;8.680;'2022-12-18 15:21:11';101330;;;-2;47
30343;BME280;17145;49.902;8.680;'2022-12-18 15:23:41';101340;;;-2;47
30343;BME280;17145;49.902;8.680;'2022-12-18 15:26:21';101340;;;-2;47
30343;BME280;17145;49.902;8.680;'2022-12-18 15:28:48';101340;;;-2;47
30343;BME280;17145;49.902;8.680;'2022-12-18 15:31:18';101340;;;-2;47
30343;BME280;17145;49.902;8.680;'2022-12-18 15:33:46';101340;;;-2;47
30343;BME280;17145;49.902;8.680;'2022-12-18 15:36:18';101340;;;-2;47
30343;BME280;17145;49.902;8.680;'2022-12-18 15:38:51';101340;;;-2;47
30343;BME280;17145;49.902;8.680;'2022-12-18 15:41:19';101340;;;-2;47